createdAt,value
2023-09-02T00:03:48.866Z,14.06
2023-09-02T00:08:50.425Z,14.07
2023-09-02T00:13:52.014Z,14.10
2023-09-02T00:18:53.576Z,14.13
2023-09-02T00:24:06.528Z,14.06
2023-09-02T00:29:08.190Z,13.95
2023-09-02T00:34:12.224Z,13.82
2023-09-02T00:39:14.037Z,13.78
2023-09-02T00:44:15.767Z,13.76
2023-09-02T00:49:17.449Z,13.76
2023-09-02T00:54:19.000Z,13.83
2023-09-02T00:59:20.781Z,13.86
2023-09-02T01:04:22.837Z,13.80
2023-09-02T01:09:24.913Z,13.76
2023-09-02T01:14:27.935Z,13.62
2023-09-02T01:19:29.946Z,13.54
2023-09-02T01:24:55.333Z,13.50
2023-09-02T01:29:59.622Z,13.46
2023-09-02T01:35:07.213Z,13.47
2023-09-02T01:40:11.406Z,13.42
2023-09-02T01:45:13.439Z,13.31
2023-09-02T01:50:17.397Z,13.21
2023-09-02T01:55:20.505Z,13.18
2023-09-02T02:00:24.774Z,13.10
2023-09-02T02:05:38.050Z,13.07
2023-09-02T02:10:44.928Z,13.05
2023-09-02T02:15:46.517Z,12.94
2023-09-02T02:21:00.001Z,12.79
2023-09-02T02:26:02.720Z,12.74
2023-09-02T02:31:04.532Z,12.77
2023-09-02T02:36:06.641Z,12.86
2023-09-02T02:41:09.491Z,12.89
2023-09-02T02:46:11.462Z,12.82
2023-09-02T02:51:13.761Z,12.82
2023-09-02T02:56:15.739Z,12.75
2023-09-02T03:01:17.543Z,12.64
2023-09-02T03:06:20.066Z,12.75
2023-09-02T03:11:21.758Z,12.80
2023-09-02T03:16:23.433Z,12.80
2023-09-02T03:21:25.056Z,12.82
2023-09-02T03:26:28.201Z,12.79
2023-09-02T03:31:31.186Z,12.76
2023-09-02T03:36:33.763Z,12.76
2023-09-02T03:41:38.522Z,12.81
2023-09-02T03:46:40.201Z,12.85
2023-09-02T03:51:43.784Z,12.84
2023-09-02T03:56:45.661Z,12.83
2023-09-02T04:01:47.344Z,12.79
2023-09-02T04:06:49.017Z,12.86
2023-09-02T04:11:50.663Z,12.87
2023-09-02T04:16:53.674Z,12.85
2023-09-02T04:21:56.508Z,12.80
2023-09-02T04:26:58.769Z,12.70
2023-09-02T04:32:00.468Z,12.67
2023-09-02T04:37:02.180Z,12.59
2023-09-02T04:42:04.801Z,12.56
2023-09-02T04:47:07.849Z,12.54
2023-09-02T04:52:09.960Z,12.47
2023-09-02T04:57:11.768Z,12.50
2023-09-02T05:02:13.561Z,12.65
2023-09-02T05:07:15.328Z,12.67
2023-09-02T05:12:17.691Z,12.67
2023-09-02T05:17:19.388Z,12.79
2023-09-02T05:22:21.032Z,12.96
2023-09-02T05:27:24.048Z,13.18
2023-09-02T05:32:25.780Z,13.41
2023-09-02T05:37:27.538Z,13.69
2023-09-02T05:42:29.163Z,13.93
2023-09-02T05:47:30.902Z,14.11
2023-09-02T05:52:32.765Z,14.35
2023-09-02T05:57:34.376Z,14.62
2023-09-02T06:02:35.999Z,14.84
2023-09-02T06:07:37.661Z,15.15
2023-09-02T06:12:39.225Z,15.38
2023-09-02T06:17:40.896Z,15.58
2023-09-02T06:22:42.882Z,15.73
2023-09-02T06:27:44.430Z,15.93
2023-09-02T06:32:46.049Z,16.13
2023-09-02T06:37:47.726Z,16.35
2023-09-02T06:42:49.342Z,16.63
2023-09-02T06:47:50.929Z,16.99
2023-09-02T06:52:52.532Z,17.45
2023-09-02T06:57:54.081Z,17.89
2023-09-02T07:02:55.702Z,18.43
2023-09-02T07:07:57.384Z,18.84
2023-09-02T07:12:58.988Z,19.12
2023-09-02T07:18:03.020Z,19.33
2023-09-02T07:23:06.911Z,19.49
2023-09-02T07:28:08.466Z,19.69
2023-09-02T07:33:10.125Z,19.99
2023-09-02T07:38:11.878Z,20.18
2023-09-02T07:43:13.437Z,20.34
2023-09-02T07:48:15.048Z,20.43
2023-09-02T07:53:16.865Z,20.50
2023-09-02T07:58:18.587Z,20.46
2023-09-02T08:03:20.435Z,20.62
2023-09-02T08:08:22.459Z,20.88
2023-09-02T08:13:24.009Z,20.98
2023-09-02T08:18:25.873Z,21.13
2023-09-02T08:23:27.551Z,21.19
2023-09-02T08:28:29.110Z,21.29
2023-09-02T08:33:30.762Z,21.45
2023-09-02T08:38:33.952Z,21.64
2023-09-02T08:43:35.873Z,21.71
2023-09-02T08:48:42.541Z,21.79
2023-09-02T08:53:45.636Z,21.92
2023-09-02T08:58:48.388Z,22.01
2023-09-02T09:03:53.832Z,22.13
2023-09-02T09:08:58.025Z,22.26
2023-09-02T09:14:03.005Z,22.32
2023-09-02T09:19:04.794Z,22.48
2023-09-02T09:24:11.111Z,22.50
2023-09-02T09:29:15.087Z,22.45
2023-09-02T09:34:16.623Z,22.36
2023-09-02T09:39:18.182Z,22.35
2023-09-02T09:44:19.806Z,22.42
2023-09-02T09:49:32.434Z,22.47
2023-09-02T09:54:38.358Z,22.57
2023-09-02T09:59:39.974Z,22.65
2023-09-02T10:04:50.763Z,22.52
2023-09-02T10:09:55.747Z,22.52
2023-09-02T10:14:58.760Z,22.59
2023-09-02T10:20:00.326Z,22.71
2023-09-02T10:25:17.068Z,22.82
2023-09-02T10:30:25.222Z,23.05
2023-09-02T10:35:29.693Z,23.26
2023-09-02T10:40:41.890Z,23.54
2023-09-02T10:45:45.496Z,23.70
2023-09-02T10:50:47.468Z,23.88
2023-09-02T10:56:00.854Z,24.03
2023-09-02T11:01:03.742Z,24.11
2023-09-02T11:06:07.338Z,24.11
2023-09-02T11:11:08.941Z,24.21
2023-09-02T11:16:15.577Z,24.24
2023-09-02T11:21:40.376Z,24.21
2023-09-02T11:26:55.015Z,24.13
2023-09-02T11:32:00.870Z,24.08
2023-09-02T11:37:02.995Z,24.10
2023-09-02T11:42:11.868Z,24.18
2023-09-02T11:47:18.399Z,24.24
2023-09-02T11:52:23.374Z,24.39
2023-09-02T11:57:24.940Z,24.53
2023-09-02T12:02:26.981Z,24.65
2023-09-02T12:07:28.722Z,24.76
2023-09-02T12:12:30.491Z,24.83
2023-09-02T12:17:32.764Z,24.85
2023-09-02T12:22:36.392Z,24.88
2023-09-02T12:27:41.071Z,24.92
2023-09-02T12:32:46.434Z,24.98
2023-09-02T12:38:00.550Z,25.11
2023-09-02T12:43:03.401Z,25.22
2023-09-02T12:48:05.522Z,25.29
2023-09-02T12:53:07.101Z,25.31
2023-09-02T12:58:09.948Z,25.33
2023-09-02T13:03:11.838Z,25.36
2023-09-02T13:08:14.308Z,25.40
2023-09-02T13:13:17.916Z,25.40
2023-09-02T13:18:19.761Z,25.47
2023-09-02T13:23:22.052Z,25.56
2023-09-02T13:28:29.074Z,25.63
2023-09-02T13:33:33.822Z,25.70
2023-09-02T13:38:37.647Z,25.78
2023-09-02T13:43:40.952Z,25.89
2023-09-02T13:48:42.682Z,25.88
2023-09-02T13:53:44.268Z,25.88
2023-09-02T13:58:47.767Z,25.90
2023-09-02T14:03:50.038Z,25.98
2023-09-02T14:08:51.918Z,25.98
2023-09-02T14:13:53.622Z,26.08
2023-09-02T14:18:55.171Z,26.03
2023-09-02T14:23:56.744Z,26.02
2023-09-02T14:28:58.511Z,25.97
2023-09-02T14:34:00.109Z,26.01
2023-09-02T14:39:01.655Z,26.09
2023-09-02T14:44:03.258Z,26.16
2023-09-02T14:49:04.811Z,26.17
2023-09-02T14:54:06.527Z,26.22
2023-09-02T14:59:12.981Z,26.25
2023-09-02T15:04:17.824Z,26.33
2023-09-02T15:09:30.430Z,26.30
2023-09-02T15:14:32.131Z,26.29
2023-09-02T15:19:33.794Z,26.31
2023-09-02T15:24:36.353Z,26.31
2023-09-02T15:29:42.425Z,26.31
2023-09-02T15:34:52.708Z,26.33
2023-09-02T15:39:57.552Z,26.33
2023-09-02T15:44:59.094Z,26.30
2023-09-02T15:50:00.657Z,26.28
2023-09-02T15:55:02.355Z,26.26
2023-09-02T16:00:05.412Z,26.18
2023-09-02T16:05:14.601Z,26.14
2023-09-02T16:10:16.444Z,26.09
2023-09-02T16:15:18.264Z,26.06
2023-09-02T16:20:19.835Z,26.05
2023-09-02T16:25:21.505Z,26.01
2023-09-02T16:30:23.104Z,25.95
2023-09-02T16:35:25.984Z,25.84
2023-09-02T16:40:30.771Z,25.67
2023-09-02T16:45:32.426Z,25.56
2023-09-02T16:50:34.349Z,25.45
2023-09-02T16:55:35.922Z,25.35
2023-09-02T17:00:37.560Z,25.24
2023-09-02T17:05:43.132Z,25.14
2023-09-02T17:10:44.724Z,25.00
2023-09-02T17:15:46.286Z,24.87
2023-09-02T17:20:47.851Z,24.74
2023-09-02T17:25:52.298Z,24.61
2023-09-02T17:30:58.752Z,24.50
2023-09-02T17:36:01.063Z,24.31
2023-09-02T17:41:02.802Z,24.14
2023-09-02T17:46:04.368Z,23.95
2023-09-02T17:51:05.929Z,23.69
2023-09-02T17:56:07.513Z,23.41
2023-09-02T18:01:09.068Z,23.12
2023-09-02T18:06:10.638Z,22.88
2023-09-02T18:11:12.260Z,22.59
2023-09-02T18:16:13.829Z,22.26
2023-09-02T18:21:15.442Z,21.91
2023-09-02T18:26:18.399Z,21.52
2023-09-02T18:31:21.159Z,21.19
2023-09-02T18:36:23.376Z,20.92
2023-09-02T18:41:24.997Z,20.62
2023-09-02T18:46:26.736Z,20.27
2023-09-02T18:51:28.333Z,19.98
2023-09-02T18:56:30.120Z,19.72
2023-09-02T19:01:35.344Z,19.51
2023-09-02T19:06:36.918Z,19.33
2023-09-02T19:11:40.666Z,19.20
2023-09-02T19:16:42.434Z,19.05
2023-09-02T19:21:44.505Z,18.90
2023-09-02T19:26:46.139Z,18.77
2023-09-02T19:31:47.764Z,18.65
2023-09-02T19:36:49.588Z,18.50
2023-09-02T19:41:52.514Z,18.43
2023-09-02T19:46:54.136Z,18.32
2023-09-02T19:51:55.817Z,18.18
2023-09-02T19:56:57.815Z,18.10
2023-09-02T20:02:00.888Z,18.07
2023-09-02T20:07:04.975Z,18.04
2023-09-02T20:12:06.843Z,17.98
2023-09-02T20:17:08.780Z,17.87
2023-09-02T20:22:10.414Z,17.73
2023-09-02T20:27:13.082Z,17.68
2023-09-02T20:32:14.666Z,17.67
2023-09-02T20:37:16.220Z,17.66
2023-09-02T20:42:17.784Z,17.61
2023-09-02T20:47:19.311Z,17.54
2023-09-02T20:52:22.022Z,17.38
2023-09-02T20:57:24.545Z,17.29
2023-09-02T21:02:27.565Z,17.33
2023-09-02T21:07:29.194Z,17.29
2023-09-02T21:12:30.761Z,17.13
2023-09-02T21:17:32.496Z,17.00
2023-09-02T21:22:36.917Z,16.90
2023-09-02T21:27:41.179Z,16.84
2023-09-02T21:32:43.865Z,16.80
2023-09-02T21:37:48.842Z,16.75
2023-09-02T21:42:50.476Z,16.72
2023-09-02T21:47:52.073Z,16.66
2023-09-02T21:52:53.695Z,16.63
2023-09-02T21:57:55.293Z,16.66
2023-09-02T22:02:57.638Z,16.66
2023-09-02T22:07:59.232Z,16.68
2023-09-02T22:13:00.789Z,16.63
2023-09-02T22:18:02.412Z,16.57
2023-09-02T22:23:04.333Z,16.63
2023-09-02T22:28:07.257Z,16.58
2023-09-02T22:33:08.887Z,16.58
2023-09-02T22:38:10.621Z,16.51
2023-09-02T22:43:12.443Z,16.38
2023-09-02T22:48:14.111Z,16.32
2023-09-02T22:53:15.808Z,16.37
2023-09-02T22:58:17.500Z,16.36
2023-09-02T23:03:21.026Z,16.34
2023-09-02T23:08:23.053Z,16.38
2023-09-02T23:13:24.761Z,16.33
2023-09-02T23:18:26.350Z,16.25
2023-09-02T23:23:27.926Z,16.17
2023-09-02T23:28:32.327Z,16.14
2023-09-02T23:33:34.439Z,16.12
2023-09-02T23:38:36.152Z,16.12
2023-09-02T23:43:37.764Z,16.09
2023-09-02T23:48:40.617Z,16.01
2023-09-02T23:53:42.204Z,15.91
2023-09-02T23:58:43.787Z,15.86
